createdAt,value
2017-12-10T00:00:38.028Z,12.10
2017-12-10T00:03:06.153Z,4.43
2017-12-10T00:05:34.293Z,8.40
2017-12-10T00:08:02.418Z,5.97
2017-12-10T00:10:30.527Z,9.27
2017-12-10T00:12:58.656Z,5.00
2017-12-10T00:15:26.819Z,10.33
2017-12-10T00:17:54.992Z,13.23
2017-12-10T00:20:23.100Z,8.37
2017-12-10T00:22:51.989Z,8.23
2017-12-10T00:25:20.146Z,9.37
2017-12-10T00:27:49.032Z,9.30
2017-12-10T00:30:17.158Z,11.93
2017-12-10T00:32:45.276Z,8.20
2017-12-10T00:35:13.416Z,8.10
2017-12-10T00:37:41.542Z,7.23
2017-12-10T00:40:10.452Z,7.70
2017-12-10T00:42:39.341Z,7.00
2017-12-10T00:45:08.252Z,14.87
2017-12-10T00:47:36.379Z,8.10
2017-12-10T00:50:04.524Z,8.60
2017-12-10T00:52:33.421Z,13.73
2017-12-10T00:55:02.312Z,5.37
2017-12-10T00:57:31.192Z,6.57
2017-12-10T00:59:59.330Z,10.10
2017-12-10T01:02:27.722Z,12.20
2017-12-10T01:04:56.609Z,4.30
2017-12-10T01:07:25.487Z,14.23
2017-12-10T01:09:53.644Z,6.47
2017-12-10T01:12:21.760Z,4.57
2017-12-10T01:14:49.904Z,12.00
2017-12-10T01:17:18.022Z,8.23
2017-12-10T01:19:46.153Z,7.73
2017-12-10T01:22:14.285Z,8.83
2017-12-10T01:24:42.412Z,6.97
2017-12-10T01:27:11.320Z,6.07
2017-12-10T01:29:39.447Z,10.17
2017-12-10T01:32:07.623Z,10.60
2017-12-10T01:34:35.730Z,10.20
2017-12-10T01:37:03.926Z,11.63
2017-12-10T01:39:31.983Z,9.13
2017-12-10T01:42:00.879Z,7.23
2017-12-10T01:44:28.995Z,10.20
2017-12-10T01:46:57.142Z,8.13
2017-12-10T01:49:25.280Z,9.00
2017-12-10T01:51:53.417Z,15.17
2017-12-10T01:54:21.542Z,10.67
2017-12-10T01:56:51.205Z,11.17
2017-12-10T01:59:19.334Z,14.07
2017-12-10T02:01:48.248Z,13.90
2017-12-10T02:04:16.367Z,5.73
2017-12-10T02:06:45.261Z,5.50
2017-12-10T02:09:14.170Z,7.97
2017-12-10T02:11:43.075Z,8.97
2017-12-10T02:14:11.970Z,6.17
2017-12-10T02:16:40.880Z,8.97
2017-12-10T02:19:09.789Z,13.07
2017-12-10T02:21:38.686Z,8.80
2017-12-10T02:24:07.589Z,13.00
2017-12-10T02:26:36.497Z,9.03
2017-12-10T02:29:05.384Z,4.67
2017-12-10T02:31:33.553Z,5.33
2017-12-10T02:34:01.690Z,5.83
2017-12-10T02:36:30.577Z,9.13
2017-12-10T02:38:59.473Z,6.07
2017-12-10T02:41:28.370Z,4.87
2017-12-10T02:43:56.493Z,10.77
2017-12-10T02:46:24.662Z,5.30
2017-12-10T02:48:53.549Z,5.60
2017-12-10T02:51:21.673Z,6.80
2017-12-10T02:53:49.816Z,5.30
2017-12-10T02:56:17.940Z,3.80
2017-12-10T02:58:46.150Z,7.60
2017-12-10T03:01:15.036Z,7.30
2017-12-10T03:03:43.164Z,6.27
2017-12-10T03:06:11.302Z,6.00
2017-12-10T03:08:39.425Z,4.03
2017-12-10T03:11:08.696Z,5.90
2017-12-10T03:13:37.560Z,9.33
2017-12-10T03:16:05.690Z,5.70
2017-12-10T03:18:33.849Z,5.60
2017-12-10T03:21:02.749Z,4.70
2017-12-10T03:23:31.629Z,5.10
2017-12-10T03:25:59.775Z,6.17
2017-12-10T03:28:27.923Z,8.20
2017-12-10T03:30:56.038Z,4.60
2017-12-10T03:33:24.174Z,5.60
2017-12-10T03:35:52.321Z,7.23
2017-12-10T03:38:20.455Z,5.80
2017-12-10T03:40:48.578Z,9.73
2017-12-10T03:43:16.684Z,8.00
2017-12-10T03:45:44.867Z,6.17
2017-12-10T03:48:13.006Z,5.70
2017-12-10T03:50:41.137Z,6.37
2017-12-10T03:53:09.253Z,4.70
2017-12-10T03:55:37.396Z,5.23
2017-12-10T03:58:05.533Z,4.83
2017-12-10T04:00:33.677Z,6.33
2017-12-10T04:03:01.819Z,4.67
2017-12-10T04:05:30.706Z,8.73
2017-12-10T04:07:59.604Z,6.80
2017-12-10T04:10:27.736Z,5.83
2017-12-10T04:12:55.871Z,5.30
2017-12-10T04:15:23.999Z,14.83
2017-12-10T04:17:52.911Z,5.70
2017-12-10T04:20:22.661Z,8.87
2017-12-10T04:22:50.795Z,7.13
2017-12-10T04:25:18.946Z,6.50
2017-12-10T04:27:48.640Z,8.87
2017-12-10T04:30:16.770Z,8.40
2017-12-10T04:32:44.892Z,5.03
2017-12-10T04:35:13.805Z,6.47
2017-12-10T04:37:41.943Z,3.90
2017-12-10T04:40:10.085Z,13.83
2017-12-10T04:42:38.213Z,5.57
2017-12-10T04:45:06.328Z,6.33
2017-12-10T04:47:35.216Z,8.50
2017-12-10T04:50:03.354Z,6.50
2017-12-10T04:52:31.501Z,13.40
2017-12-10T04:55:00.397Z,10.37
2017-12-10T04:57:29.288Z,15.00
2017-12-10T04:59:58.218Z,8.13
2017-12-10T05:02:27.105Z,5.97
2017-12-10T05:04:55.236Z,10.07
2017-12-10T05:07:23.381Z,12.17
2017-12-10T05:09:51.524Z,8.93
2017-12-10T05:12:19.652Z,10.70
2017-12-10T05:14:48.572Z,6.03
2017-12-10T05:17:16.692Z,6.23
2017-12-10T05:19:44.821Z,13.43
2017-12-10T05:22:14.469Z,7.37
2017-12-10T05:24:43.356Z,7.27
2017-12-10T05:27:12.263Z,7.33
2017-12-10T05:29:41.162Z,6.63
2017-12-10T05:32:10.123Z,5.90
2017-12-10T05:34:38.240Z,7.30
2017-12-10T05:37:06.369Z,4.07
2017-12-10T05:39:34.515Z,7.20
2017-12-10T05:42:03.585Z,5.93
2017-12-10T05:44:31.704Z,6.90
2017-12-10T05:46:59.855Z,8.67
2017-12-10T05:49:27.985Z,7.70
2017-12-10T05:51:56.114Z,15.53
2017-12-10T05:54:25.018Z,8.50
2017-12-10T05:56:53.149Z,4.60
2017-12-10T05:59:21.293Z,10.07
2017-12-10T06:01:49.430Z,12.67
2017-12-10T06:04:17.578Z,27.70
2017-12-10T06:06:45.706Z,25.33
2017-12-10T06:09:14.635Z,26.47
2017-12-10T06:11:43.525Z,28.70
2017-12-10T06:14:11.693Z,24.73
2017-12-10T06:16:39.827Z,29.17
2017-12-10T06:19:08.103Z,27.80
2017-12-10T06:21:36.230Z,19.70
2017-12-10T06:24:04.374Z,18.17
2017-12-10T06:26:32.518Z,20.40
2017-12-10T06:29:01.447Z,10.53
2017-12-10T06:31:30.358Z,14.37
2017-12-10T06:33:59.246Z,10.37
2017-12-10T06:36:28.161Z,10.00
2017-12-10T06:38:57.059Z,12.57
2017-12-10T06:41:25.986Z,11.00
2017-12-10T06:43:54.116Z,11.70
2017-12-10T06:46:22.274Z,8.90
2017-12-10T06:48:50.857Z,10.20
2017-12-10T06:51:18.989Z,10.30
2017-12-10T06:53:47.122Z,5.63
2017-12-10T06:56:16.128Z,9.17
2017-12-10T06:58:45.007Z,6.53
2017-12-10T07:01:13.908Z,7.80
2017-12-10T07:03:43.713Z,8.20
2017-12-10T07:06:11.832Z,7.00
2017-12-10T07:08:39.972Z,7.20
2017-12-10T07:11:08.092Z,6.67
2017-12-10T07:13:37.033Z,3.80
2017-12-10T07:16:05.164Z,8.30
2017-12-10T07:18:33.877Z,7.63
2017-12-10T07:21:01.994Z,10.37
2017-12-10T07:23:30.142Z,13.50
2017-12-10T07:25:58.280Z,10.17
2017-12-10T07:28:26.415Z,8.33
2017-12-10T07:30:54.546Z,13.90
2017-12-10T07:33:22.711Z,10.53
2017-12-10T07:35:51.611Z,11.13
2017-12-10T07:38:20.525Z,10.10
2017-12-10T07:40:48.645Z,12.37
2017-12-10T07:43:16.785Z,11.93
2017-12-10T07:45:45.690Z,10.10
2017-12-10T07:48:14.600Z,10.20
2017-12-10T07:50:42.740Z,8.53
2017-12-10T07:53:12.385Z,10.03
2017-12-10T07:55:41.311Z,15.07
2017-12-10T07:58:09.457Z,12.50
2017-12-10T08:00:39.134Z,11.77
2017-12-10T08:03:07.258Z,12.20
2017-12-10T08:05:35.408Z,6.00
2017-12-10T08:08:03.536Z,12.60
2017-12-10T08:10:31.697Z,11.53
2017-12-10T08:12:59.863Z,13.30
2017-12-10T08:15:28.756Z,12.70
2017-12-10T08:17:56.895Z,8.13
2017-12-10T08:20:25.013Z,8.20
2017-12-10T08:22:53.951Z,6.70
2017-12-10T08:25:22.102Z,8.83
2017-12-10T08:27:50.985Z,8.63
2017-12-10T08:30:21.196Z,9.37
2017-12-10T08:32:49.636Z,7.33
2017-12-10T08:35:18.547Z,4.00
2017-12-10T08:37:47.463Z,4.73
2017-12-10T08:40:15.591Z,6.80
2017-12-10T08:42:43.746Z,6.30
2017-12-10T08:45:11.886Z,14.20
2017-12-10T08:47:40.046Z,8.43
2017-12-10T08:50:08.186Z,10.47
2017-12-10T08:52:36.329Z,5.40
2017-12-10T08:55:06.006Z,7.20
2017-12-10T08:57:34.155Z,8.10
2017-12-10T09:00:02.287Z,8.13
2017-12-10T09:02:30.417Z,7.40
2017-12-10T09:04:58.554Z,9.47
2017-12-10T09:07:28.045Z,11.37
2017-12-10T09:09:56.958Z,8.23
2017-12-10T09:12:25.876Z,9.17
2017-12-10T09:14:54.164Z,8.37
2017-12-10T09:17:22.343Z,15.50
2017-12-10T09:19:50.488Z,11.73
2017-12-10T09:22:19.939Z,20.47
2017-12-10T09:24:48.826Z,15.97
2017-12-10T09:27:17.736Z,9.53
2017-12-10T09:29:46.648Z,7.23
2017-12-10T09:32:15.550Z,6.90
2017-12-10T09:34:44.433Z,8.70
2017-12-10T09:37:13.353Z,17.70
2017-12-10T09:39:41.517Z,6.93
2017-12-10T09:42:09.643Z,9.03
2017-12-10T09:44:37.791Z,7.57
2017-12-10T09:47:05.914Z,7.83
2017-12-10T09:49:34.142Z,11.20
2017-12-10T09:52:02.314Z,6.23
2017-12-10T09:54:30.457Z,10.67
2017-12-10T09:56:58.632Z,5.90
2017-12-10T09:59:26.766Z,8.90
2017-12-10T10:01:54.942Z,8.00
2017-12-10T10:04:23.068Z,8.77
2017-12-10T10:06:52.822Z,7.70
2017-12-10T10:09:21.713Z,7.87
2017-12-10T10:11:50.635Z,11.43
2017-12-10T10:14:19.568Z,8.70
2017-12-10T10:16:47.682Z,9.10
2017-12-10T10:19:16.634Z,12.20
2017-12-10T10:21:45.548Z,16.43
2017-12-10T10:24:13.697Z,20.00
2017-12-10T10:26:41.858Z,16.03
2017-12-10T10:29:10.001Z,20.53
2017-12-10T10:31:39.527Z,17.47
2017-12-10T10:34:07.672Z,13.47
2017-12-10T10:36:36.621Z,10.43
2017-12-10T10:39:05.410Z,11.40
2017-12-10T10:41:34.289Z,7.37
2017-12-10T10:44:03.214Z,8.30
2017-12-10T10:46:32.116Z,8.37
2017-12-10T10:49:01.020Z,12.23
2017-12-10T10:51:29.174Z,10.67
2017-12-10T10:53:57.302Z,18.20
2017-12-10T10:56:25.453Z,12.43
2017-12-10T10:58:54.378Z,9.17
2017-12-10T11:01:22.530Z,8.87
2017-12-10T11:03:50.680Z,4.93
2017-12-10T11:06:18.874Z,7.00
2017-12-10T11:08:47.022Z,6.83
2017-12-10T11:11:15.926Z,7.27
2017-12-10T11:13:44.814Z,5.80
2017-12-10T11:16:13.737Z,8.70
2017-12-10T11:18:41.865Z,8.60
2017-12-10T11:21:10.009Z,6.33
2017-12-10T11:23:38.931Z,5.53
2017-12-10T11:26:07.320Z,6.80
2017-12-10T11:28:35.487Z,6.80
2017-12-10T11:31:04.372Z,5.47
2017-12-10T11:33:33.283Z,4.87
2017-12-10T11:36:02.176Z,3.93
2017-12-10T11:38:30.354Z,7.47
2017-12-10T11:40:58.518Z,6.43
2017-12-10T11:43:26.739Z,8.13
2017-12-10T11:45:54.887Z,6.50
2017-12-10T11:48:23.054Z,6.60
2017-12-10T11:50:51.189Z,10.63
2017-12-10T11:53:19.334Z,7.03
2017-12-10T11:55:47.479Z,5.63
2017-12-10T11:58:16.413Z,4.53
2017-12-10T12:00:44.557Z,7.27
2017-12-10T12:03:12.743Z,8.40
2017-12-10T12:05:40.878Z,17.50
2017-12-10T12:08:09.031Z,22.40
2017-12-10T12:10:37.929Z,8.73
2017-12-10T12:13:06.838Z,6.70
2017-12-10T12:15:35.758Z,5.40
2017-12-10T12:18:03.887Z,10.73
2017-12-10T12:20:32.815Z,6.37
2017-12-10T12:23:00.982Z,7.97
2017-12-10T12:25:29.126Z,24.27
2017-12-10T12:27:57.287Z,30.37
2017-12-10T12:30:26.213Z,29.03
2017-12-10T12:32:54.356Z,21.27
2017-12-10T12:35:23.235Z,48.30
2017-12-10T12:37:51.386Z,37.47
2017-12-10T12:40:20.334Z,39.80
2017-12-10T12:42:49.052Z,28.50
2017-12-10T12:45:17.207Z,17.87
2017-12-10T12:47:45.396Z,12.30
2017-12-10T12:50:13.560Z,20.33
2017-12-10T12:52:41.701Z,10.60
2017-12-10T12:55:10.781Z,12.63
2017-12-10T12:57:38.917Z,11.80
2017-12-10T13:00:09.184Z,9.50
2017-12-10T13:02:37.309Z,9.50
2017-12-10T13:05:05.465Z,7.80
2017-12-10T13:07:33.624Z,5.67
2017-12-10T13:10:02.394Z,13.23
2017-12-10T13:12:30.562Z,9.70
2017-12-10T13:14:58.702Z,7.80
2017-12-10T13:17:26.874Z,8.77
2017-12-10T13:19:55.784Z,7.70
2017-12-10T13:22:24.686Z,9.20
2017-12-10T13:24:52.865Z,8.97
2017-12-10T13:27:21.793Z,8.83
2017-12-10T13:29:49.918Z,11.13
2017-12-10T13:32:18.843Z,12.10
2017-12-10T13:34:47.877Z,8.80
2017-12-10T13:37:16.044Z,11.93
2017-12-10T13:39:45.753Z,22.03
2017-12-10T13:42:13.896Z,13.80
2017-12-10T13:44:42.042Z,5.73
2017-12-10T13:47:10.981Z,12.60
2017-12-10T13:49:39.152Z,8.60
2017-12-10T13:52:08.066Z,11.97
2017-12-10T13:54:36.213Z,11.30
2017-12-10T13:57:04.389Z,11.40
2017-12-10T13:59:32.572Z,15.97
2017-12-10T14:02:00.741Z,10.47
2017-12-10T14:04:28.933Z,11.27
2017-12-10T14:06:57.083Z,17.87
2017-12-10T14:09:25.454Z,13.13
2017-12-10T14:11:54.381Z,9.63
2017-12-10T14:14:22.525Z,13.57
2017-12-10T14:16:51.429Z,13.07
2017-12-10T14:19:19.607Z,10.33
2017-12-10T14:21:47.778Z,12.43
2017-12-10T14:24:15.953Z,12.50
2017-12-10T14:26:45.683Z,11.50
2017-12-10T14:29:13.818Z,9.10
2017-12-10T14:31:42.006Z,10.50
2017-12-10T14:34:10.934Z,9.77
2017-12-10T14:36:39.139Z,13.97
2017-12-10T14:39:07.368Z,14.07
2017-12-10T14:41:35.499Z,13.30
2017-12-10T14:44:03.662Z,17.80
2017-12-10T14:46:31.805Z,11.30
2017-12-10T14:48:59.962Z,9.37
2017-12-10T14:51:28.145Z,14.40
2017-12-10T14:53:56.313Z,19.10
2017-12-10T14:56:24.446Z,18.40
2017-12-10T14:58:52.603Z,20.20
2017-12-10T15:01:20.747Z,18.60
2017-12-10T15:03:49.675Z,16.07
2017-12-10T15:06:17.839Z,23.10
2017-12-10T15:08:46.748Z,17.73
2017-12-10T15:11:14.908Z,13.07
2017-12-10T15:13:43.045Z,17.20
2017-12-10T15:16:11.219Z,20.03
2017-12-10T15:18:39.378Z,18.70
2017-12-10T15:21:07.510Z,17.53
2017-12-10T15:23:35.692Z,18.27
2017-12-10T15:26:03.875Z,13.23
2017-12-10T15:28:32.754Z,13.00
2017-12-10T15:31:01.677Z,17.87
2017-12-10T15:33:29.793Z,11.73
2017-12-10T15:35:57.958Z,15.13
2017-12-10T15:38:26.095Z,15.93
2017-12-10T15:40:54.255Z,19.57
2017-12-10T15:43:22.428Z,19.00
2017-12-10T15:45:50.589Z,12.30
2017-12-10T15:48:20.347Z,13.80
2017-12-10T15:50:48.514Z,14.13
2017-12-10T15:53:16.686Z,13.47
2017-12-10T15:55:45.659Z,15.70
2017-12-10T15:58:13.822Z,12.93
2017-12-10T16:00:42.016Z,11.90
2017-12-10T16:03:10.178Z,11.17
2017-12-10T16:05:38.331Z,12.03
2017-12-10T16:08:07.255Z,11.40
2017-12-10T16:10:35.407Z,12.30
2017-12-10T16:13:04.348Z,10.73
2017-12-10T16:15:32.478Z,10.33
2017-12-10T16:18:00.633Z,14.80
2017-12-10T16:20:28.769Z,11.83
2017-12-10T16:22:58.624Z,15.33
2017-12-10T16:25:26.755Z,17.37
2017-12-10T16:27:55.577Z,25.97
2017-12-10T16:30:24.480Z,24.70
2017-12-10T16:32:52.717Z,21.83
2017-12-10T16:35:21.789Z,18.07
2017-12-10T16:37:50.698Z,17.83
2017-12-10T16:40:18.837Z,17.53
2017-12-10T16:42:46.996Z,15.83
2017-12-10T16:45:15.242Z,16.50
2017-12-10T16:47:44.142Z,10.80
2017-12-10T16:50:13.109Z,8.37
2017-12-10T16:52:41.245Z,11.90
2017-12-10T16:55:10.162Z,9.33
2017-12-10T16:57:38.310Z,10.17
2017-12-10T17:00:06.485Z,7.40
2017-12-10T17:02:34.623Z,16.40
2017-12-10T17:05:02.762Z,13.00
2017-12-10T17:07:30.918Z,6.93
2017-12-10T17:09:59.082Z,10.47
2017-12-10T17:12:28.009Z,10.40
2017-12-10T17:14:56.212Z,13.40
2017-12-10T17:17:24.366Z,11.57
2017-12-10T17:19:52.522Z,12.20
2017-12-10T17:22:20.700Z,4.70
2017-12-10T17:24:48.827Z,9.33
2017-12-10T17:27:16.981Z,10.73
2017-12-10T17:29:47.384Z,10.43
2017-12-10T17:32:15.571Z,10.27
2017-12-10T17:34:43.701Z,17.73
2017-12-10T17:37:11.856Z,7.40
2017-12-10T17:39:40.947Z,12.20
2017-12-10T17:42:09.097Z,10.73
2017-12-10T17:44:37.253Z,8.27
2017-12-10T17:47:06.173Z,11.43
2017-12-10T17:49:34.294Z,8.37
2017-12-10T17:52:02.505Z,7.47
2017-12-10T17:54:30.633Z,4.83
2017-12-10T17:56:58.810Z,12.70
2017-12-10T17:59:27.736Z,7.03
2017-12-10T18:01:55.910Z,7.63
2017-12-10T18:04:24.806Z,4.77
2017-12-10T18:06:53.700Z,5.57
2017-12-10T18:09:21.868Z,7.33
2017-12-10T18:11:50.017Z,11.80
2017-12-10T18:14:18.179Z,15.10
2017-12-10T18:16:46.350Z,11.20
2017-12-10T18:19:14.518Z,10.77
2017-12-10T18:21:42.660Z,10.30
2017-12-10T18:24:11.596Z,9.20
2017-12-10T18:26:39.742Z,10.87
2017-12-10T18:29:07.897Z,7.70
2017-12-10T18:31:36.799Z,10.93
2017-12-10T18:34:05.721Z,5.43
2017-12-10T18:36:33.849Z,5.70
2017-12-10T18:39:02.000Z,4.60
2017-12-10T18:41:30.139Z,6.97
2017-12-10T18:43:58.285Z,4.03
2017-12-10T18:46:27.207Z,5.37
2017-12-10T18:48:55.367Z,5.13
2017-12-10T18:51:23.512Z,4.77
2017-12-10T18:53:51.637Z,5.33
2017-12-10T18:56:19.813Z,5.17
2017-12-10T18:58:47.961Z,4.60
2017-12-10T19:01:16.099Z,6.20
2017-12-10T19:03:44.245Z,4.83
2017-12-10T19:06:12.411Z,9.60
2017-12-10T19:08:40.520Z,4.93
2017-12-10T19:11:09.524Z,4.53
2017-12-10T19:13:37.633Z,5.97
2017-12-10T19:16:05.779Z,9.47
2017-12-10T19:18:33.940Z,3.40
2017-12-10T19:21:02.092Z,3.60
2017-12-10T19:23:30.276Z,6.73
2017-12-10T19:25:59.214Z,3.60
2017-12-10T19:28:27.392Z,7.50
2017-12-10T19:30:55.521Z,10.37
2017-12-10T19:33:23.692Z,4.00
2017-12-10T19:35:51.832Z,5.97
2017-12-10T19:38:20.960Z,5.80
2017-12-10T19:40:49.078Z,4.70
2017-12-10T19:43:17.229Z,5.80
2017-12-10T19:45:45.371Z,6.87
2017-12-10T19:48:13.543Z,5.93
2017-12-10T19:50:42.418Z,6.20
2017-12-10T19:53:11.347Z,5.83
2017-12-10T19:55:39.495Z,5.93
2017-12-10T19:58:07.650Z,8.10
2017-12-10T20:00:36.544Z,4.83
2017-12-10T20:03:05.470Z,6.10
2017-12-10T20:05:33.645Z,5.40
2017-12-10T20:08:01.809Z,3.00
2017-12-10T20:10:30.012Z,4.63
2017-12-10T20:12:58.978Z,2.80
2017-12-10T20:15:27.141Z,3.10
2017-12-10T20:17:55.315Z,3.87
2017-12-10T20:20:23.507Z,4.60
2017-12-10T20:22:52.380Z,3.17
2017-12-10T20:25:21.368Z,3.33
2017-12-10T20:27:50.291Z,3.73
2017-12-10T20:30:19.275Z,5.47
2017-12-10T20:32:47.414Z,8.03
2017-12-10T20:35:15.588Z,5.73
2017-12-10T20:37:43.752Z,4.73
2017-12-10T20:40:11.904Z,5.23
2017-12-10T20:42:40.056Z,2.70
2017-12-10T20:45:08.187Z,2.80
2017-12-10T20:47:36.362Z,1.80
2017-12-10T20:50:04.548Z,4.70
2017-12-10T20:52:32.703Z,1.93
2017-12-10T20:55:00.830Z,5.97
2017-12-10T20:57:28.991Z,5.53
2017-12-10T20:59:57.114Z,7.50
2017-12-10T21:02:25.274Z,2.10
2017-12-10T21:04:53.432Z,4.73
2017-12-10T21:07:21.556Z,4.83
2017-12-10T21:09:49.715Z,4.50
2017-12-10T21:12:17.838Z,3.20
2017-12-10T21:14:46.021Z,4.13
2017-12-10T21:17:14.947Z,3.77
2017-12-10T21:19:43.863Z,2.70
2017-12-10T21:22:12.779Z,2.80
2017-12-10T21:24:40.930Z,2.80
2017-12-10T21:27:09.838Z,2.67
2017-12-10T21:29:38.775Z,2.00
2017-12-10T21:32:06.902Z,2.40
2017-12-10T21:34:35.050Z,4.13
2017-12-10T21:37:03.186Z,1.80
2017-12-10T21:39:31.353Z,3.03
2017-12-10T21:41:59.477Z,3.10
2017-12-10T21:44:27.598Z,1.40
2017-12-10T21:46:55.724Z,1.73
2017-12-10T21:49:23.886Z,1.90
2017-12-10T21:51:52.009Z,4.40
2017-12-10T21:54:20.188Z,2.37
2017-12-10T21:56:48.855Z,5.90
2017-12-10T21:59:17.033Z,2.23
2017-12-10T22:01:45.161Z,2.90
2017-12-10T22:04:13.309Z,3.33
2017-12-10T22:06:41.451Z,2.97
2017-12-10T22:09:10.355Z,3.50
2017-12-10T22:11:39.265Z,4.03
2017-12-10T22:14:08.174Z,2.00
2017-12-10T22:16:36.322Z,2.23
2017-12-10T22:19:05.217Z,5.93
2017-12-10T22:21:33.367Z,4.53
2017-12-10T22:24:01.502Z,2.00
2017-12-10T22:26:31.161Z,1.87
2017-12-10T22:28:59.277Z,3.87
2017-12-10T22:31:27.419Z,2.60
2017-12-10T22:33:56.312Z,1.70
2017-12-10T22:36:25.237Z,4.33
2017-12-10T22:38:53.960Z,4.40
2017-12-10T22:41:22.868Z,2.03
2017-12-10T22:43:51.004Z,1.30
2017-12-10T22:46:19.156Z,1.50
2017-12-10T22:48:47.289Z,2.33
2017-12-10T22:51:16.186Z,2.70
2017-12-10T22:53:45.080Z,1.60
2017-12-10T22:56:14.016Z,2.73
2017-12-10T22:58:42.917Z,1.70
2017-12-10T23:01:11.051Z,1.40
2017-12-10T23:03:39.202Z,2.03
2017-12-10T23:06:07.325Z,1.50
2017-12-10T23:08:37.082Z,1.90
2017-12-10T23:11:06.001Z,2.27
2017-12-10T23:13:45.950Z,2.10
2017-12-10T23:16:31.854Z,1.20
2017-12-10T23:19:00.780Z,1.70
2017-12-10T23:21:29.834Z,1.30
2017-12-10T23:23:58.053Z,2.97
2017-12-10T23:26:26.931Z,1.50
2017-12-10T23:28:55.058Z,1.60
2017-12-10T23:31:24.153Z,1.43
2017-12-10T23:33:52.829Z,3.00
2017-12-10T23:36:21.885Z,1.47
2017-12-10T23:38:50.033Z,3.93
2017-12-10T23:41:18.941Z,1.83
2017-12-10T23:43:47.867Z,1.37
2017-12-10T23:46:15.994Z,1.27
2017-12-10T23:48:44.130Z,1.83
2017-12-10T23:51:12.282Z,1.73
2017-12-10T23:53:40.400Z,2.43
2017-12-10T23:56:08.536Z,1.60
2017-12-10T23:58:36.704Z,2.47
